Terminal Aerodrome Forecast
Issued by NWS

Home | Current Version | Previous Version | Text Only | Print | Product List | Glossary On
Versions: 1 2 3 4 5 6 7 8 9 10 11 12 13 14 15 16 17
000
FTUS45 KTFX 171132
TAFBZN
TAF
KBZN 171132Z 1712/1818 VRB04KT P6SM SCT090 SCT200
      TEMPO 1712/1715 5SM BR
     FM180000 16007KT P6SM SCT090 BKN150
     FM180800 17011KT P6SM SCT040 BKN070=

USA.gov is the U.S. government's official web portal to all federal, state and local government web resources and services.